Time;durP1;ratioP1;P1;durP2;ratioP2;P2;SDS_P1;SDS_P2;PMS_P1;PMS_P2;Temp;Humidity;BMP_temperature;BMP_pressure;BME280_temperature;BME280_humidity;BME280_pressure;Samples;Min_cycle;Max_cycle;Signal;HPM_P1;HPM_P2
2023/03/15 00:01:15;;;;;;;7.05;0.95;;;3.50;99.90;;;;;;4976576;28;20049;-68
2023/03/15 00:03:41;;;;;;;6.35;0.73;;;3.60;99.90;;;;;;4974074;28;20053;-69
2023/03/15 00:06:07;;;;;;;;;;;3.50;99.90;;;;;;4977647;28;20107;-69
2023/03/15 00:08:33;;;;;;;3.10;0.50;;;3.60;99.90;;;;;;4992686;28;19929;-69
2023/03/15 00:10:59;;;;;;;1.60;0.63;;;3.60;99.90;;;;;;4961588;28;20045;-69
2023/03/15 00:13:25;;;;;;;3.65;1.20;;;3.60;99.90;;;;;;4975449;28;20696;-69
2023/03/15 00:15:54;;;;;;;1.67;0.90;;;3.60;99.90;;;;;;4974342;28;20209;-69
2023/03/15 00:18:21;;;;;;;6.72;0.93;;;3.70;99.90;;;;;;4994610;28;20267;-69
2023/03/15 00:20:47;;;;;;;;;;;3.60;99.90;;;;;;4995002;28;20456;-69
2023/03/15 00:23:14;;;;;;;3.40;0.75;;;3.60;99.90;;;;;;4972075;28;19928;-69
2023/03/15 00:25:42;;;;;;;5.32;0.50;;;3.50;99.90;;;;;;4972831;28;20046;-69
2023/03/15 00:28:08;;;;;;;4.15;0.77;;;3.60;99.90;;;;;;4973854;28;20141;-68
2023/03/15 00:30:33;;;;;;;3.73;0.77;;;3.50;99.90;;;;;;4975340;28;21370;-69
2023/03/15 00:32:59;;;;;;;4.10;0.67;;;3.50;99.90;;;;;;4973060;28;20325;-69
2023/03/15 00:35:24;;;;;;;3.83;0.60;;;3.50;99.90;;;;;;4992311;28;20082;-69
2023/03/15 00:37:55;;;;;;;6.40;0.60;;;3.40;99.90;;;;;;4994186;28;20041;-69
2023/03/15 00:40:21;;;;;;;0.95;0.40;;;3.40;99.90;;;;;;4975423;28;20046;-69
2023/03/15 00:42:51;;;;;;;5.95;1.58;;;3.30;99.90;;;;;;4977260;28;20042;-69
2023/03/15 00:45:19;;;;;;;4.70;0.60;;;3.30;99.90;;;;;;4990288;28;20137;-69
2023/03/15 00:47:48;;;;;;;3.25;0.60;;;3.30;99.90;;;;;;4994145;28;20038;-69
2023/03/15 00:50:14;;;;;;;3.70;0.57;;;3.30;99.90;;;;;;4998243;28;20297;-69
2023/03/15 00:52:41;;;;;;;2.70;0.47;;;3.30;99.90;;;;;;4991198;28;20297;-69
2023/03/15 00:55:12;;;;;;;7.03;1.15;;;3.20;99.90;;;;;;4976785;28;20041;-69
2023/03/15 00:57:39;;;;;;;3.30;0.60;;;3.20;99.90;;;;;;4981963;28;20125;-69
2023/03/15 01:00:10;;;;;;;3.25;0.90;;;3.20;99.90;;;;;;4995733;28;20716;-69
2023/03/15 01:02:36;;;;;;;5.03;0.50;;;3.20;99.90;;;;;;4979492;28;20054;-69
2023/03/15 01:05:05;;;;;;;3.63;0.50;;;3.10;99.90;;;;;;4975604;28;20064;-69
2023/03/15 01:07:32;;;;;;;1.73;0.40;;;3.10;99.90;;;;;;4979240;28;20046;-69
2023/03/15 01:10:02;;;;;;;5.63;1.05;;;3.10;99.90;;;;;;4979598;28;20046;-69
2023/03/15 01:12:31;;;;;;;6.40;0.55;;;3.10;99.90;;;;;;4970436;28;20064;-69
2023/03/15 01:14:57;;;;;;;2.80;0.65;;;3.20;99.90;;;;;;4985987;28;20165;-69
2023/03/15 01:17:23;;;;;;;7.60;0.90;;;3.10;99.90;;;;;;4994050;28;20127;-69
2023/03/15 01:19:50;;;;;;;3.97;1.33;;;3.10;99.90;;;;;;4979520;28;20077;-69
2023/03/15 01:22:16;;;;;;;3.50;0.30;;;3.00;99.90;;;;;;4994295;28;20123;-69
2023/03/15 01:24:42;;;;;;;3.17;0.40;;;3.00;99.90;;;;;;4977107;28;20262;-69
2023/03/15 01:27:08;;;;;;;9.07;0.80;;;3.00;99.90;;;;;;4992164;28;20205;-69
2023/03/15 01:29:33;;;;;;;6.20;0.40;;;3.00;99.90;;;;;;4971060;28;22323;-69
2023/03/15 01:31:59;;;;;;;3.20;0.60;;;3.00;99.90;;;;;;4972506;28;20427;-69
2023/03/15 01:34:25;;;;;;;4.83;0.70;;;3.00;99.90;;;;;;4975090;28;20052;-69
2023/03/15 01:36:53;;;;;;;2.97;0.50;;;3.10;99.90;;;;;;4995155;28;20234;-69
2023/03/15 01:39:20;;;;;;;3.90;0.85;;;3.10;99.90;;;;;;4973202;28;20054;-69
2023/03/15 01:41:46;;;;;;;4.30;0.70;;;3.10;99.90;;;;;;4994232;28;20057;-69
2023/03/15 01:44:14;;;;;;;3.38;0.60;;;3.10;99.90;;;;;;4991411;28;20053;-69
2023/03/15 01:46:40;;;;;;;3.42;0.45;;;3.10;99.90;;;;;;4954029;28;20143;-69
2023/03/15 01:49:08;;;;;;;4.13;0.40;;;3.10;99.90;;;;;;4968913;28;20499;-69
2023/03/15 01:52:03;;;;;;;5.90;0.65;;;3.00;99.90;;;;;;4995198;28;20093;-69
2023/03/15 01:54:30;;;;;;;7.85;0.60;;;3.00;99.90;;;;;;4954244;28;20089;-69
2023/03/15 01:57:01;;;;;;;2.90;0.60;;;2.90;99.90;;;;;;4977504;28;20049;-69
2023/03/15 01:59:56;;;;;;;3.38;0.45;;;3.00;99.90;;;;;;4978765;28;20147;-69
2023/03/15 02:02:24;;;;;;;2.33;0.70;;;2.90;99.90;;;;;;4971229;28;20724;-69
2023/03/15 02:05:08;;;;;;;3.60;0.85;;;2.90;99.90;;;;;;4950222;28;20046;-69
2023/03/15 02:07:34;;;;;;;4.00;0.80;;;2.90;99.90;;;;;;4988514;28;20054;-69
2023/03/15 02:10:04;;;;;;;3.28;0.70;;;2.80;99.90;;;;;;4974513;28;20038;-69
2023/03/15 02:12:32;;;;;;;4.50;0.47;;;2.80;99.90;;;;;;4992049;28;20072;-69
2023/03/15 02:15:00;;;;;;;6.63;0.77;;;2.80;99.90;;;;;;4970779;28;20046;-69
2023/03/15 02:17:38;;;;;;;2.72;0.77;;;2.80;99.90;;;;;;4971982;28;20285;-69
2023/03/15 02:20:29;;;;;;;3.58;0.40;;;2.80;99.90;;;;;;4977576;28;20081;-69
2023/03/15 02:23:02;;;;;;;5.40;0.50;;;2.70;99.90;;;;;;4975622;28;20084;-69
2023/03/15 02:25:38;;;;;;;4.43;0.35;;;2.70;99.90;;;;;;4982297;28;20037;-69
2023/03/15 02:28:08;;;;;;;3.78;0.32;;;2.60;99.90;;;;;;5000388;28;20400;-69
2023/03/15 02:30:34;;;;;;;2.03;0.22;;;2.60;99.90;;;;;;4995501;28;20042;-69
2023/03/15 02:33:03;;;;;;;2.87;0.40;;;2.60;99.90;;;;;;4982417;28;20048;-69
2023/03/15 02:35:31;;;;;;;1.10;0.40;;;2.60;99.90;;;;;;4982598;28;20268;-69
2023/03/15 02:37:57;;;;;;;2.90;0.75;;;2.60;99.90;;;;;;4981722;28;20472;-69
2023/03/15 02:40:27;;;;;;;3.60;0.50;;;2.50;99.90;;;;;;4979555;28;20041;-69
2023/03/15 02:42:57;;;;;;;0.70;0.40;;;2.50;99.90;;;;;;4980572;28;20053;-69
2023/03/15 02:45:30;;;;;;;1.73;0.50;;;2.50;99.90;;;;;;4978559;28;20499;-69
2023/03/15 02:47:57;;;;;;;3.13;0.65;;;2.40;99.90;;;;;;4978904;28;20372;-69
2023/03/15 02:50:23;;;;;;;4.03;0.40;;;2.40;99.90;;;;;;4985000;28;20103;-69
2023/03/15 02:52:48;;;;;;;4.20;0.60;;;2.40;99.90;;;;;;5002674;28;20053;-69
2023/03/15 02:55:14;;;;;;;4.97;0.50;;;2.40;99.90;;;;;;4994687;28;20053;-69
2023/03/15 02:57:39;;;;;;;2.77;0.50;;;2.30;99.90;;;;;;4991861;28;20145;-69
2023/03/15 03:00:13;;;;;;;1.17;0.67;;;2.30;99.90;;;;;;5042478;22;20037;-70
2023/03/15 03:02:40;;;;;;;6.05;0.70;;;2.30;99.90;;;;;;4972135;28;20046;-70
2023/03/15 03:05:06;;;;;;;1.92;0.50;;;2.30;99.90;;;;;;4984795;28;20510;-70
2023/03/15 03:07:32;;;;;;;1.83;0.73;;;2.30;99.90;;;;;;5005152;28;20034;-69
2023/03/15 03:09:57;;;;;;;3.92;0.60;;;2.30;99.90;;;;;;5006556;28;20153;-68
2023/03/15 03:12:23;;;;;;;4.47;1.07;;;2.30;99.90;;;;;;4988664;28;20090;-70
2023/03/15 03:14:49;;;;;;;5.10;0.47;;;2.40;99.90;;;;;;4980523;28;20305;-70
2023/03/15 03:17:15;;;;;;;4.70;0.57;;;2.30;99.90;;;;;;5000474;28;20042;-68
2023/03/15 03:19:40;;;;;;;5.60;0.50;;;2.30;99.90;;;;;;5002090;28;21362;-68
2023/03/15 03:22:06;;;;;;;2.27;0.23;;;2.40;99.90;;;;;;4972696;28;20464;-68
2023/03/15 03:24:32;;;;;;;4.47;0.70;;;2.40;99.90;;;;;;4981831;28;20050;-68
2023/03/15 03:26:59;;;;;;;5.28;0.47;;;2.40;99.90;;;;;;5003981;28;20412;-69
2023/03/15 03:29:24;;;;;;;2.70;0.40;;;2.40;99.90;;;;;;5002856;28;20166;-69
2023/03/15 03:31:50;;;;;;;1.47;0.53;;;2.50;99.90;;;;;;5000071;28;20100;-68
2023/03/15 03:34:16;;;;;;;1.60;0.50;;;2.40;99.90;;;;;;4985149;28;20288;-69
2023/03/15 03:36:42;;;;;;;1.57;0.33;;;2.50;99.90;;;;;;4968536;28;20045;-69
2023/03/15 03:39:09;;;;;;;6.28;0.45;;;2.50;99.90;;;;;;4981241;28;20041;-69
2023/03/15 03:41:35;;;;;;;;;;;2.50;99.90;;;;;;4986244;28;20042;-69
2023/03/15 03:44:01;;;;;;;2.60;0.40;;;2.40;99.90;;;;;;4981571;28;19924;-68
2023/03/15 03:46:27;;;;;;;5.43;0.60;;;2.40;99.90;;;;;;4982193;28;20100;-69
2023/03/15 03:48:53;;;;;;;3.97;0.68;;;2.40;99.90;;;;;;4983950;28;20053;-69
2023/03/15 03:51:20;;;;;;;3.17;0.70;;;2.40;99.90;;;;;;4985263;28;20508;-69
2023/03/15 03:53:46;;;;;;;2.25;0.40;;;2.30;99.90;;;;;;4981245;28;20144;-69
2023/03/15 03:56:11;;;;;;;4.73;0.90;;;2.30;99.90;;;;;;5000457;28;20293;-69
2023/03/15 03:58:37;;;;;;;1.63;0.50;;;2.30;99.90;;;;;;4996585;28;20046;-69
2023/03/15 04:01:04;;;;;;;4.10;1.43;;;2.30;99.90;;;;;;4983655;28;20042;-69
2023/03/15 04:03:29;;;;;;;0.80;0.32;;;2.30;99.90;;;;;;4983317;28;20040;-69
2023/03/15 04:05:57;;;;;;;0.93;0.40;;;2.30;99.90;;;;;;4998474;28;20404;-69
2023/03/15 04:08:24;;;;;;;3.97;0.28;;;2.30;99.90;;;;;;4980847;28;20038;-69
2023/03/15 04:10:55;;;;;;;5.05;0.43;;;2.30;99.90;;;;;;4998242;28;20193;-69
2023/03/15 04:13:21;;;;;;;2.00;0.73;;;2.30;99.90;;;;;;4980617;28;20059;-69
2023/03/15 04:15:47;;;;;;;2.00;0.43;;;2.30;99.90;;;;;;4996215;28;20038;-69
2023/03/15 04:18:14;;;;;;;2.43;0.60;;;2.30;99.90;;;;;;4983827;28;20060;-69
2023/03/15 04:20:45;;;;;;;4.55;0.70;;;2.30;99.90;;;;;;4996687;28;20060;-69
2023/03/15 04:23:18;;;;;;;5.10;0.70;;;2.30;99.90;;;;;;4982241;28;20136;-69
2023/03/15 04:25:48;;;;;;;2.00;0.38;;;2.30;99.90;;;;;;5001038;28;20113;-69
2023/03/15 04:28:14;;;;;;;2.08;0.52;;;2.20;99.90;;;;;;4966818;28;20088;-69
2023/03/15 04:30:43;;;;;;;6.93;0.80;;;2.30;99.90;;;;;;4997138;28;20069;-69
2023/03/15 04:33:11;;;;;;;3.92;0.88;;;2.20;99.90;;;;;;4982866;28;20437;-69
2023/03/15 04:35:41;;;;;;;5.00;1.17;;;2.20;99.90;;;;;;4985230;28;20046;-69
2023/03/15 04:38:07;;;;;;;4.40;0.98;;;2.20;99.90;;;;;;4980882;28;20374;-72
2023/03/15 04:40:33;;;;;;;3.42;1.63;;;2.20;99.90;;;;;;4980421;28;20503;-68
2023/03/15 04:43:02;;;;;;;10.25;1.25;;;2.20;99.90;;;;;;4987931;28;20153;-69
2023/03/15 04:45:29;;;;;;;5.07;0.90;;;2.20;99.90;;;;;;4980599;28;20054;-69
2023/03/15 04:47:58;;;;;;;2.65;0.68;;;2.10;99.90;;;;;;4996793;28;20500;-69
2023/03/15 04:50:27;;;;;;;5.28;0.68;;;2.20;99.90;;;;;;4976197;28;20463;-69
2023/03/15 04:52:53;;;;;;;3.80;0.75;;;2.10;99.90;;;;;;4996147;28;20057;-69
2023/03/15 04:55:19;;;;;;;8.33;1.13;;;2.10;99.90;;;;;;4981928;28;20460;-69
2023/03/15 04:57:44;;;;;;;7.93;1.40;;;2.10;99.90;;;;;;4999334;28;20311;-69
2023/03/15 05:00:11;;;;;;;3.67;0.87;;;2.10;99.90;;;;;;5001622;28;20132;-69
2023/03/15 05:02:40;;;;;;;3.10;0.82;;;2.10;99.90;;;;;;5000417;28;20042;-69
2023/03/15 05:05:09;;;;;;;3.42;0.65;;;2.10;99.90;;;;;;4964156;28;20106;-69
2023/03/15 05:07:37;;;;;;;3.70;0.63;;;2.00;99.90;;;;;;5003744;28;20081;-69
2023/03/15 05:10:04;;;;;;;5.72;1.13;;;2.00;99.90;;;;;;4976575;28;20446;-69
2023/03/15 05:12:33;;;;;;;2.42;0.52;;;2.00;99.90;;;;;;5005006;28;20737;-69
2023/03/15 05:14:59;;;;;;;1.97;0.60;;;2.00;99.90;;;;;;4983736;28;20099;-69
2023/03/15 05:17:24;;;;;;;2.35;0.90;;;2.00;99.90;;;;;;4982399;28;20141;-69
2023/03/15 05:19:50;;;;;;;2.80;0.90;;;1.90;99.90;;;;;;4998655;28;20128;-69
2023/03/15 05:22:17;;;;;;;1.03;0.43;;;1.90;99.90;;;;;;4981864;28;20041;-69
2023/03/15 05:24:43;;;;;;;3.38;0.55;;;1.90;99.90;;;;;;4993820;28;20096;-69
2023/03/15 05:27:10;;;;;;;1.40;0.50;;;1.90;99.90;;;;;;4979007;28;20034;-69
2023/03/15 05:29:36;;;;;;;3.75;0.80;;;1.80;99.90;;;;;;4984325;28;20104;-69
2023/03/15 05:32:03;;;;;;;1.00;0.50;;;1.90;99.90;;;;;;4983682;28;20045;-70
2023/03/15 05:34:31;;;;;;;;;;;1.80;99.90;;;;;;4997130;28;20045;-69
2023/03/15 05:36:57;;;;;;;4.72;0.85;;;1.90;99.90;;;;;;4965200;28;20394;-69
2023/03/15 05:39:23;;;;;;;1.67;0.43;;;1.90;99.90;;;;;;4982464;28;20129;-69
2023/03/15 05:41:49;;;;;;;1.03;0.20;;;1.80;99.90;;;;;;4980824;28;20132;-69
2023/03/15 05:44:15;;;;;;;2.03;0.57;;;1.80;99.90;;;;;;4997953;28;20034;-69
2023/03/15 05:46:41;;;;;;;1.17;0.75;;;1.80;99.90;;;;;;4984536;28;20080;-69
2023/03/15 05:49:07;;;;;;;1.40;0.57;;;1.80;99.90;;;;;;4979805;28;20069;-69
2023/03/15 05:51:33;;;;;;;1.53;0.50;;;1.80;99.90;;;;;;4981747;28;20129;-69
2023/03/15 05:53:58;;;;;;;2.58;0.60;;;1.80;99.90;;;;;;4975360;28;20247;-69
2023/03/15 05:56:24;;;;;;;5.47;0.87;;;1.80;99.90;;;;;;4972750;28;20060;-69
2023/03/15 05:58:53;;;;;;;2.10;0.80;;;1.80;99.90;;;;;;4980164;28;20121;-69
2023/03/15 06:01:18;;;;;;;1.67;0.70;;;1.70;99.90;;;;;;4962237;28;20140;-69
2023/03/15 06:03:47;;;;;;;3.10;1.03;;;1.70;99.90;;;;;;5000168;28;20037;-69
2023/03/15 06:06:13;;;;;;;6.47;1.30;;;1.80;99.90;;;;;;5000509;28;20270;-69
2023/03/15 06:08:38;;;;;;;3.67;0.60;;;1.70;99.90;;;;;;4982480;28;20257;-69
2023/03/15 06:11:04;;;;;;;7.90;1.23;;;1.80;99.90;;;;;;4987420;28;20103;-69
2023/03/15 06:13:30;;;;;;;2.90;0.90;;;1.80;99.90;;;;;;4987606;28;20042;-69
2023/03/15 06:15:55;;;;;;;3.63;0.80;;;1.80;99.90;;;;;;5000071;28;20426;-69
2023/03/15 06:18:21;;;;;;;3.53;0.90;;;1.70;99.90;;;;;;4996812;28;20056;-69
2023/03/15 06:20:47;;;;;;;4.72;1.42;;;1.70;99.90;;;;;;4981273;28;20092;-69
2023/03/15 06:23:13;;;;;;;5.17;0.90;;;1.70;99.90;;;;;;5006332;28;20500;-69
2023/03/15 06:25:38;;;;;;;9.73;1.17;;;1.80;99.90;;;;;;4977223;28;20125;-69
2023/03/15 06:28:04;;;;;;;4.90;0.93;;;1.70;99.90;;;;;;4998179;28;20125;-69
2023/03/15 06:30:30;;;;;;;1.23;0.67;;;1.70;99.90;;;;;;4980280;28;20038;-69
2023/03/15 06:32:55;;;;;;;7.97;0.80;;;1.70;99.90;;;;;;4999178;28;20053;-69
2023/03/15 06:35:21;;;;;;;3.47;0.90;;;1.80;99.90;;;;;;4977119;28;20096;-69
2023/03/15 06:37:47;;;;;;;2.50;0.60;;;1.80;99.90;;;;;;4982766;28;20463;-69
2023/03/15 06:40:15;;;;;;;5.37;0.80;;;1.80;99.90;;;;;;4999268;28;20120;-69
2023/03/15 06:42:43;;;;;;;2.35;1.00;;;1.80;99.90;;;;;;4982864;28;20711;-68
2023/03/15 06:45:09;;;;;;;2.92;0.75;;;1.80;99.90;;;;;;4995236;28;20513;-68
2023/03/15 06:47:37;;;;;;;5.47;1.13;;;1.80;99.90;;;;;;4983317;28;20128;-68
2023/03/15 06:50:04;;;;;;;3.05;1.50;;;1.80;99.90;;;;;;5002458;28;20471;-69
2023/03/15 06:52:30;;;;;;;2.65;0.80;;;1.90;99.90;;;;;;4984317;28;20124;-71
2023/03/15 06:54:55;;;;;;;2.63;0.80;;;1.90;99.90;;;;;;4982208;28;20140;-68
2023/03/15 06:57:21;;;;;;;1.77;0.70;;;1.90;99.90;;;;;;4984520;28;20382;-74
2023/03/15 06:59:47;;;;;;;5.60;0.90;;;2.00;99.90;;;;;;5000563;28;20384;-68
2023/03/15 07:02:15;;;;;;;1.60;0.53;;;2.00;99.90;;;;;;4966760;28;20367;-68
2023/03/15 07:04:40;;;;;;;2.20;0.50;;;2.10;99.90;;;;;;4989402;28;20038;-70
2023/03/15 07:07:06;;;;;;;7.40;1.20;;;2.10;99.90;;;;;;4984256;28;20133;-68
2023/03/15 07:09:32;;;;;;;6.57;1.00;;;2.10;99.90;;;;;;5003897;28;20055;-68
2023/03/15 07:11:57;;;;;;;2.93;0.57;;;2.10;99.90;;;;;;4989266;28;20050;-68
2023/03/15 07:14:23;;;;;;;3.43;1.07;;;2.20;99.90;;;;;;4990472;28;20092;-68
2023/03/15 07:16:49;;;;;;;5.33;0.87;;;2.30;99.90;;;;;;5008286;28;20482;-68
2023/03/15 07:19:23;;;;;;;3.10;0.65;;;2.30;99.90;;;;;;4987403;28;20077;-69
2023/03/15 07:21:49;;;;;;;4.03;0.93;;;2.40;99.90;;;;;;5004721;28;20128;-68
2023/03/15 07:24:15;;;;;;;4.00;1.37;;;2.40;99.90;;;;;;4983317;28;20064;-68
2023/03/15 07:26:40;;;;;;;7.93;0.90;;;2.50;99.90;;;;;;4986223;28;20061;-68
2023/03/15 07:29:06;;;;;;;3.10;0.60;;;2.60;99.90;;;;;;5001241;28;20359;-68
2023/03/15 07:31:31;;;;;;;4.50;0.90;;;2.60;99.90;;;;;;5005144;28;20038;-68
2023/03/15 07:33:57;;;;;;;6.73;0.90;;;2.70;99.90;;;;;;5004983;28;20411;-68
2023/03/15 07:36:23;;;;;;;5.20;1.50;;;2.80;99.90;;;;;;4987432;28;20328;-68
2023/03/15 07:38:48;;;;;;;6.87;0.90;;;2.90;99.90;;;;;;4988833;28;20541;-69
2023/03/15 07:41:14;;;;;;;2.90;1.00;;;3.00;99.90;;;;;;5005440;28;20077;-69
2023/03/15 07:43:40;;;;;;;4.37;1.00;;;3.00;99.90;;;;;;5006838;28;20041;-68
2023/03/15 07:46:06;;;;;;;5.90;1.27;;;3.10;99.90;;;;;;4985607;28;20037;-68
2023/03/15 07:48:32;;;;;;;10.77;1.20;;;3.10;99.90;;;;;;4988563;28;20042;-69
2023/03/15 07:50:58;;;;;;;4.47;1.15;;;3.20;99.90;;;;;;5006617;28;20053;-68
2023/03/15 07:53:24;;;;;;;7.57;1.20;;;3.20;99.90;;;;;;4990251;28;20037;-68
2023/03/15 07:55:49;;;;;;;3.77;1.40;;;3.20;99.90;;;;;;4984721;28;20496;-69
2023/03/15 07:58:15;;;;;;;7.10;0.90;;;3.30;99.90;;;;;;5005655;28;20815;-69
2023/03/15 08:00:41;;;;;;;7.10;0.63;;;3.30;99.90;;;;;;4990528;28;20033;-69
2023/03/15 08:03:07;;;;;;;4.07;1.03;;;3.40;99.90;;;;;;4989040;28;20046;-69
2023/03/15 08:05:33;;;;;;;6.23;1.20;;;3.40;99.90;;;;;;5005290;28;20538;-69
2023/03/15 08:07:59;;;;;;;2.25;0.60;;;3.50;99.90;;;;;;4989889;28;20627;-69
2023/03/15 08:10:25;;;;;;;1.52;0.65;;;3.50;99.90;;;;;;5005124;28;20056;-69
2023/03/15 08:12:51;;;;;;;5.05;0.60;;;3.60;99.90;;;;;;5006227;28;20049;-69
2023/03/15 08:15:18;;;;;;;2.50;1.00;;;3.60;99.90;;;;;;4990238;28;20037;-69
2023/03/15 08:17:47;;;;;;;2.55;0.70;;;3.70;99.90;;;;;;5005756;28;20327;-69
2023/03/15 08:20:16;;;;;;;13.73;1.30;;;3.70;99.90;;;;;;5005440;28;20511;-68
2023/03/15 08:22:45;;;;;;;5.70;1.08;;;3.80;99.90;;;;;;5003761;28;20066;-69
2023/03/15 08:25:12;;;;;;;3.22;0.77;;;3.80;99.90;;;;;;4988684;28;20121;-69
2023/03/15 08:27:38;;;;;;;2.47;0.90;;;3.90;99.90;;;;;;5006059;28;20105;-69
2023/03/15 08:30:04;;;;;;;4.50;0.68;;;4.00;99.90;;;;;;4985939;28;20061;-69
2023/03/15 08:32:31;;;;;;;3.58;0.75;;;4.10;99.90;;;;;;5009700;28;20331;-69
2023/03/15 08:34:56;;;;;;;3.65;0.50;;;4.10;99.90;;;;;;4988878;28;20423;-69
2023/03/15 08:37:22;;;;;;;1.10;0.40;;;4.20;99.90;;;;;;4988643;28;20050;-69
2023/03/15 08:39:48;;;;;;;2.88;0.60;;;4.30;99.90;;;;;;4980214;28;20050;-69
2023/03/15 08:42:14;;;;;;;7.10;0.70;;;4.40;99.90;;;;;;4990032;28;20050;-69
2023/03/15 08:44:40;;;;;;;1.07;0.50;;;4.40;99.90;;;;;;5005461;28;20045;-69
2023/03/15 08:47:06;;;;;;;2.87;0.70;;;4.50;99.90;;;;;;4988558;28;20049;-69
2023/03/15 08:49:32;;;;;;;2.87;0.70;;;4.60;99.90;;;;;;4984284;28;20119;-68
2023/03/15 08:51:57;;;;;;;3.83;0.73;;;4.70;99.90;;;;;;5007025;28;20328;-69
2023/03/15 08:54:24;;;;;;;3.20;0.77;;;4.80;99.90;;;;;;4990245;28;20061;-69
2023/03/15 08:56:50;;;;;;;3.97;0.82;;;4.80;99.90;;;;;;4982579;28;20510;-69
2023/03/15 08:59:15;;;;;;;2.37;0.47;;;4.90;99.90;;;;;;4982084;28;20038;-69
2023/03/15 09:02:50;;;;;;;4.87;0.80;;;5.00;99.90;;;;;;5031735;22;20115;-85
2023/03/15 09:05:10;;;;;;;;;;;;;;;;;;;;;
2023/03/15 09:08:20;;;;;;;3.58;0.43;;;5.10;99.90;;;;;;4951167;28;20133;-86
2023/03/15 09:10:55;;;;;;;0.43;0.20;;;5.20;99.90;;;;;;4929581;29;20517;-85
2023/03/15 09:13:59;;;;;;;2.33;0.60;;;5.20;99.90;;;;;;4933977;28;20046;-86
2023/03/15 09:20:43;;;;;;;1.38;0.50;;;5.40;99.90;;;;;;4972643;28;20121;-86
2023/03/15 09:23:13;;;;;;;13.35;0.98;;;5.60;99.90;;;;;;4889408;29;20154;-86
2023/03/15 09:26:16;;;;;;;;;;;5.60;99.90;;;;;;4949162;28;20049;-84
2023/03/15 09:29:55;;;;;;;1.20;0.45;;;5.80;99.90;;;;;;4963685;28;20012;-86
2023/03/15 09:32:20;;;;;;;3.70;0.50;;;5.90;99.90;;;;;;5010147;23;20064;-69
2023/03/15 09:34:46;;;;;;;5.53;1.03;;;5.90;99.90;;;;;;5023765;28;20036;-69
2023/03/15 09:37:11;;;;;;;3.47;0.90;;;6.00;99.90;;;;;;4999596;28;20123;-69
2023/03/15 09:39:37;;;;;;;7.63;0.83;;;6.10;99.90;;;;;;5007781;28;20042;-69
2023/03/15 09:42:17;;;;;;;9.47;1.33;;;6.10;99.90;;;;;;4981031;28;20137;-69
2023/03/15 09:44:51;;;;;;;4.05;0.65;;;6.10;99.90;;;;;;4988730;28;20056;-69
2023/03/15 09:47:26;;;;;;;2.83;0.57;;;6.20;99.90;;;;;;4987721;28;20173;-69
2023/03/15 09:50:02;;;;;;;7.38;1.42;;;6.30;99.90;;;;;;4993507;28;20059;-69
2023/03/15 09:52:43;;;;;;;7.47;0.90;;;6.40;99.90;;;;;;4983365;28;20597;-69
2023/03/15 09:55:24;;;;;;;3.38;0.68;;;6.40;99.90;;;;;;4999990;28;20046;-69
2023/03/15 09:57:52;;;;;;;9.45;0.90;;;6.50;99.90;;;;;;4985184;28;20076;-69
2023/03/15 10:00:35;;;;;;;5.38;1.13;;;6.60;99.90;;;;;;5000560;28;20037;-69
2023/03/15 10:03:05;;;;;;;5.47;1.33;;;6.60;99.90;;;;;;4993462;28;20043;-69
2023/03/15 10:05:55;;;;;;;4.22;0.75;;;6.70;99.90;;;;;;4998946;28;20443;-69
2023/03/15 10:08:21;;;;;;;4.50;1.10;;;6.70;99.90;;;;;;5005389;28;20121;-70
2023/03/15 10:10:58;;;;;;;2.57;1.23;;;6.80;99.90;;;;;;4996803;28;20121;-69
2023/03/15 10:13:30;;;;;;;4.40;0.65;;;6.90;99.90;;;;;;4974302;28;20042;-70
2023/03/15 10:16:17;;;;;;;3.92;0.68;;;7.00;99.90;;;;;;4977788;28;20515;-70
2023/03/15 10:18:50;;;;;;;3.25;0.60;;;7.10;99.90;;;;;;4990242;28;20064;-70
2023/03/15 10:21:26;;;;;;;4.40;0.95;;;7.20;99.90;;;;;;4960175;28;20074;-70
2023/03/15 10:23:53;;;;;;;4.40;1.17;;;7.20;99.90;;;;;;4963908;28;20042;-70
2023/03/15 10:26:24;;;;;;;3.95;0.63;;;7.10;99.90;;;;;;4980948;28;20074;-70
2023/03/15 10:28:51;;;;;;;3.80;1.48;;;7.10;99.90;;;;;;4989817;28;20096;-70
2023/03/15 10:31:22;;;;;;;4.28;1.38;;;7.10;99.90;;;;;;5004312;28;20034;-70
2023/03/15 10:33:48;;;;;;;4.22;0.60;;;7.20;99.90;;;;;;4961527;28;20056;-78
2023/03/15 10:36:22;;;;;;;7.65;1.10;;;7.10;99.90;;;;;;4989368;28;20046;-69
2023/03/15 10:38:49;;;;;;;3.88;1.00;;;7.10;99.90;;;;;;5002008;28;20041;-70
2023/03/15 10:41:39;;;;;;;4.18;0.85;;;7.00;99.90;;;;;;4993179;28;20049;-70
2023/03/15 10:44:10;;;;;;;6.68;0.93;;;7.10;99.90;;;;;;4984546;28;20085;-71
2023/03/15 10:46:36;;;;;;;3.05;0.77;;;7.20;99.90;;;;;;4984690;28;20050;-70
2023/03/15 10:49:12;;;;;;;3.50;0.70;;;7.20;99.90;;;;;;4992380;28;20140;-70
2023/03/15 10:51:44;;;;;;;5.50;0.95;;;7.40;99.90;;;;;;4983490;28;20252;-70
2023/03/15 10:54:14;;;;;;;3.08;0.90;;;7.70;99.90;;;;;;5000680;28;20582;-69
2023/03/15 10:56:58;;;;;;;5.10;0.70;;;7.90;99.90;;;;;;4976215;28;20096;-69
2023/03/15 10:59:26;;;;;;;4.85;0.68;;;8.20;99.90;;;;;;4988379;28;20042;-69
2023/03/15 11:02:06;;;;;;;2.63;0.70;;;8.40;99.90;;;;;;5004768;28;20131;-69
2023/03/15 11:04:32;;;;;;;5.18;1.05;;;8.50;99.90;;;;;;4999400;28;20499;-69
2023/03/15 11:07:02;;;;;;;4.47;0.87;;;8.70;99.90;;;;;;4982293;28;20061;-69
2023/03/15 11:09:38;;;;;;;6.75;1.40;;;8.80;99.90;;;;;;4991841;28;20046;-69
2023/03/15 11:12:06;;;;;;;6.60;1.17;;;9.00;99.90;;;;;;4978447;28;20088;-69
2023/03/15 11:14:37;;;;;;;5.10;1.13;;;9.10;99.90;;;;;;4981760;28;20191;-69
2023/03/15 11:17:04;;;;;;;6.10;1.00;;;9.10;99.90;;;;;;4986491;28;20073;-69
2023/03/15 11:19:36;;;;;;;5.80;1.35;;;9.20;99.90;;;;;;4981178;28;20054;-69
2023/03/15 11:22:02;;;;;;;5.38;0.98;;;9.20;99.90;;;;;;4984344;28;20125;-69
2023/03/15 11:24:30;;;;;;;3.13;0.70;;;9.00;99.90;;;;;;5005632;28;20419;-69
2023/03/15 11:27:00;;;;;;;3.20;0.77;;;8.90;99.90;;;;;;4989688;28;20484;-69
2023/03/15 11:29:30;;;;;;;2.97;0.60;;;8.90;99.90;;;;;;5003538;28;20061;-69
2023/03/15 11:32:02;;;;;;;3.80;1.25;;;9.00;99.90;;;;;;4998203;28;20042;-70
2023/03/15 11:34:51;;;;;;;4.60;0.85;;;9.10;99.90;;;;;;4987219;28;20046;-68
2023/03/15 11:37:26;;;;;;;4.22;0.82;;;9.20;99.80;;;;;;4999242;28;20121;-72
2023/03/15 11:40:08;;;;;;;7.47;1.63;;;9.20;98.60;;;;;;4984954;28;20173;-69
2023/03/15 11:42:48;;;;;;;4.40;0.68;;;8.90;95.90;;;;;;4966990;28;20073;-69
2023/03/15 11:45:35;;;;;;;10.95;1.40;;;8.70;95.50;;;;;;4972588;28;20081;-69
2023/03/15 11:48:10;;;;;;;3.53;1.50;;;8.70;96.10;;;;;;4991912;28;20049;-69
2023/03/15 11:50:35;;;;;;;5.97;0.80;;;8.70;96.00;;;;;;4992815;28;20077;-69
2023/03/15 11:53:05;;;;;;;4.53;0.60;;;8.70;96.50;;;;;;4979517;28;20042;-69
2023/03/15 11:55:32;;;;;;;4.47;0.75;;;8.80;96.70;;;;;;4983007;28;20805;-70
2023/03/15 11:58:34;;;;;;;2.60;1.00;;;8.90;97.20;;;;;;4980289;28;20050;-69
2023/03/15 12:01:05;;;;;;;5.20;0.60;;;9.00;96.40;;;;;;4962854;28;20463;-69
2023/03/15 12:03:33;;;;;;;5.40;1.23;;;9.10;95.40;;;;;;4954503;28;20137;-69
2023/03/15 12:06:09;;;;;;;4.13;0.60;;;9.20;94.60;;;;;;4980492;28;20041;-69
2023/03/15 12:08:52;;;;;;;4.18;0.82;;;9.20;93.30;;;;;;4983291;28;20046;-69
2023/03/15 12:11:21;;;;;;;5.07;0.80;;;9.30;94.10;;;;;;4965026;28;20519;-69
2023/03/15 12:14:27;;;;;;;4.50;0.98;;;9.30;92.90;;;;;;4986077;28;20044;-69
2023/03/15 12:17:28;;;;;;;3.28;0.57;;;9.30;92.20;;;;;;5004284;28;20045;-69
2023/03/15 12:20:11;;;;;;;4.78;0.90;;;9.50;91.80;;;;;;4976807;28;20139;-69
2023/03/15 12:22:47;;;;;;;3.92;0.60;;;9.50;92.50;;;;;;4957484;28;20046;-69
2023/03/15 12:25:31;;;;;;;3.70;1.05;;;9.50;91.00;;;;;;4977422;28;20066;-69
2023/03/15 12:27:58;;;;;;;6.10;0.98;;;9.40;91.30;;;;;;4976662;28;20038;-69
2023/03/15 12:30:32;;;;;;;;;;;9.20;92.10;;;;;;4979826;28;20121;-69
2023/03/15 12:32:58;;;;;;;4.90;1.48;;;8.90;92.20;;;;;;4993916;28;20089;-69
2023/03/15 12:35:39;;;;;;;6.22;1.27;;;8.60;93.70;;;;;;4998359;28;20038;-69
2023/03/15 12:38:14;;;;;;;4.45;0.70;;;8.60;94.10;;;;;;4977322;28;20045;-69
2023/03/15 12:40:53;;;;;;;3.65;1.30;;;8.70;94.40;;;;;;4983067;28;20439;-69
2023/03/15 12:43:43;;;;;;;6.47;0.95;;;8.80;94.40;;;;;;4983291;28;20046;-69
2023/03/15 12:46:37;;;;;;;5.68;0.95;;;8.90;94.20;;;;;;4983504;28;20505;-69
2023/03/15 12:49:21;;;;;;;6.38;1.02;;;9.00;93.80;;;;;;4979422;28;20511;-69
2023/03/15 12:51:58;;;;;;;8.73;1.05;;;9.30;93.60;;;;;;4959996;28;20054;-69
2023/03/15 12:54:29;;;;;;;4.40;0.70;;;9.50;92.30;;;;;;4998367;28;20041;-69
2023/03/15 12:57:03;;;;;;;8.07;0.65;;;9.60;91.30;;;;;;4995017;28;20406;-69
2023/03/15 12:59:43;;;;;;;5.03;0.52;;;9.70;91.40;;;;;;4973557;28;20408;-69
2023/03/15 13:02:48;;;;;;;3.53;0.70;;;9.80;89.60;;;;;;4985566;28;20411;-69
2023/03/15 13:05:35;;;;;;;6.43;1.15;;;9.90;90.50;;;;;;4976573;28;20057;-69
2023/03/15 13:08:22;;;;;;;4.80;0.90;;;10.00;88.60;;;;;;4990046;28;20053;-69
2023/03/15 13:11:10;;;;;;;2.37;0.80;;;10.10;88.20;;;;;;4974774;28;20085;-69
2023/03/15 13:13:48;;;;;;;2.30;0.65;;;10.20;87.10;;;;;;4972432;28;20295;-69
2023/03/15 13:16:16;;;;;;;2.70;0.65;;;10.30;88.00;;;;;;4998242;28;20038;-69
2023/03/15 13:18:53;;;;;;;4.25;0.85;;;10.40;87.80;;;;;;5002027;28;20034;-69
2023/03/15 13:21:53;;;;;;;2.88;0.85;;;10.50;85.50;;;;;;4974175;28;20042;-69